Nassauborg — PHDU — position and weather

sailwx.info

Track history (hours):
 
Tides and Currents Weather Stations Pressure Air Temp Water Temp Dewpoint Dewpoint Depression Visibility Wind Speed Wind Dir Waves Ship Positions

Nassauborg

Ship's website: http://www.wagenborg.com/index.cfm?pid=37&itemid=158&contentitemid=236

Last reported at 2016-Jun-25 12:27 UTC. Time now 2016-Jun-26 20:58 UTC.
Position N 31°50' E 034°39'.

Length 143 m; beam 22 m.

Type: Ship. MMSI: 246430000.

Date/timePositionNaut miles runAvg speedWind from/ knotsBaromVisibWave heightAir tempDewpointWater temp
2016-Jun-25 12:27N 31°50' E 034°39'0 0.0
2016-Jun-25 11:33N 31°50' E 034°39'0 0.0
2016-Jun-25 10:33N 31°50' E 034°39'0 0.0
2016-Jun-24 19:31N 31°50' E 034°39'0 0.0
2016-Jun-24 18:25N 31°50' E 034°39'0 0.0
2016-Jun-24 14:28N 31°50' E 034°39'0 0.0
2016-Jun-24 12:33N 31°50' E 034°39'0 0.0
2016-Jun-24 08:32N 31°50' E 034°38'3 1.2
2016-Jun-24 06:18N 31°51' E 034°36'0 0.0
2016-Jun-23 20:29N 31°51' E 034°36'0 0.0
2016-Jun-23 19:31N 31°51' E 034°36'0 0.0
2016-Jun-23 18:25N 31°51' E 034°36'0 0.0
2016-Jun-23 16:15N 31°51' E 034°36'0 0.0
2016-Jun-23 14:32N 31°51' E 034°36'0 0.0
2016-Jun-23 13:29N 31°51' E 034°36'0 0.0
2016-Jun-23 12:31N 31°51' E 034°36'0 0.0
2016-Jun-23 11:31N 31°51' E 034°36'0 0.0
2016-Jun-23 10:27N 31°51' E 034°36'0 0.0
2016-Jun-23 00:26N 31°51' E 034°36'4 1.5
2016-Jun-22 21:33N 31°52' E 034°31'1313.0
2016-Jun-22 20:33N 31°53' E 034°16'1312.8
2016-Jun-22 19:33N 31°53' E 034°01'1312.7
2016-Jun-22 18:33N 31°54' E 033°46'1313.0
2016-Jun-22 17:33N 31°55' E 033°30'1513.1
2016-Jun-22 16:23N 31°56' E 033°12'1113.2
2016-Jun-22 15:33N 31°56' E 032°59'1713.3
2016-Jun-22 14:18N 31°57' E 032°40'1113.4
2016-Jun-22 13:31N 31°57' E 032°27'1313.5
2016-Jun-22 12:32N 31°58' E 032°12'1613.5
2016-Jun-22 11:20N 31°59' E 031°53'1413.2
2016-Jun-22 10:15N 31°57' E 031°36'913.3
2016-Jun-22 09:33N 31°54' E 031°26'1110.5
2016-Jun-22 08:33N 31°50' E 031°14'81 5.7
2016-Jun-21 18:28N 31°10' E 029°52'  
Track history (hours):
 
Tides and Currents Weather Stations Pressure Air Temp Water Temp Dewpoint Dewpoint Depression Visibility Wind Speed Wind Dir Waves Ship Positions

Nassauborg

Ship's website: http://www.wagenborg.com/index.cfm?pid=37&itemid=158&contentitemid=236

Last reported at 2016-Jun-25 12:27 UTC. Time now 2016-Jun-26 20:58 UTC.
Position N 31°50' E 034°39'.

Length 143 m; beam 22 m.

Type: Ship. MMSI: 246430000.

Date/timePositionNaut miles runAvg speedWind from/ knotsBaromVisibWave heightAir tempDewpointWater temp
2016-Jun-25 12:27N 31°50' E 034°39'0 0.0
2016-Jun-25 11:33N 31°50' E 034°39'0 0.0
2016-Jun-25 10:33N 31°50' E 034°39'0 0.0
2016-Jun-24 19:31N 31°50' E 034°39'0 0.0
2016-Jun-24 18:25N 31°50' E 034°39'0 0.0
2016-Jun-24 14:28N 31°50' E 034°39'0 0.0
2016-Jun-24 12:33N 31°50' E 034°39'0 0.0
2016-Jun-24 08:32N 31°50' E 034°38'3 1.2
2016-Jun-24 06:18N 31°51' E 034°36'0 0.0
2016-Jun-23 20:29N 31°51' E 034°36'0 0.0
2016-Jun-23 19:31N 31°51' E 034°36'0 0.0
2016-Jun-23 18:25N 31°51' E 034°36'0 0.0
2016-Jun-23 16:15N 31°51' E 034°36'0 0.0
2016-Jun-23 14:32N 31°51' E 034°36'0 0.0
2016-Jun-23 13:29N 31°51' E 034°36'0 0.0
2016-Jun-23 12:31N 31°51' E 034°36'0 0.0
2016-Jun-23 11:31N 31°51' E 034°36'0 0.0
2016-Jun-23 10:27N 31°51' E 034°36'0 0.0
2016-Jun-23 00:26N 31°51' E 034°36'4 1.5
2016-Jun-22 21:33N 31°52' E 034°31'1313.0
2016-Jun-22 20:33N 31°53' E 034°16'1312.8
2016-Jun-22 19:33N 31°53' E 034°01'1312.7
2016-Jun-22 18:33N 31°54' E 033°46'1313.0
2016-Jun-22 17:33N 31°55' E 033°30'1513.1
2016-Jun-22 16:23N 31°56' E 033°12'1113.2
2016-Jun-22 15:33N 31°56' E 032°59'1713.3
2016-Jun-22 14:18N 31°57' E 032°40'1113.4
2016-Jun-22 13:31N 31°57' E 032°27'1313.5
2016-Jun-22 12:32N 31°58' E 032°12'1613.5
2016-Jun-22 11:20N 31°59' E 031°53'1413.2
2016-Jun-22 10:15N 31°57' E 031°36'913.3
2016-Jun-22 09:33N 31°54' E 031°26'1110.5
2016-Jun-22 08:33N 31°50' E 031°14'81 5.7
2016-Jun-21 18:28N 31°10' E 029°52'  

Dump ship's entire track history